Somersville, Connecticut
Current Conditions -  °F | °C
As of 12:51 PM on Thursday 23 Oct 2014 (Local Time) from KBDL Reporting Station
Light Rain Light Rain  
Wind Chill: 54°   Ceiling: 1700
Heat Index: 54°   Visibility: 9mi
Dew Point: 47°   Wind: 22mph
Humidity: 77%   Direction: 360°N
Pressure: 29.66"   Gusts: 28mph
Location:  41.98°N, 72.49°W
Report Text: KBDL 231651Z 36019G24KT 9SM -RA BKN017 BKN024 OVC035 12/08 A2966 RMK AO2 PK WND 01026/1631 RAB49 SLP044 P0000 T01220083
Loading
Personal Weather Stations






























Interactive Weather Map
Tropical Storm Tracking
New forecast layout! Learn more

10-Day Weather Forecast

Advertisements
Track Severe Weather on mobile